Historyczne dane pomiarowe

Dodano dane terminowe – wersja testowa.

Dane z okresu 1951-2019

Wersja bazy: 1.34 [2019-03-16, lista zmian], aktualizacja planowana na 2019-04-15

Dane meteo z obszaru Polski uzyskane na podstawie danych udostępnionych przez Instytut Meteorologii i Gospodarki Wodnej – Państwowy Instytut Badawczy.

 

Wybierz Datę:    

       

TemperaturaWilgotnośćWiatrCiśnienieOpadyŚniegCzas trwania zjawisk
 Stacja t tx tn tng RH VA  wxwx mslp ppp RRR   cm mm wxwxwxwxwxwxwx
1969-01-14 4.6 5.6 0.4--- 2.0 4.3---- 0.0-- 17---------
1969-01-15 -2.3 8.0 -6.4--- 8.0 0.0---- 0.0-- 16---------
1969-01-16 1.8 6.4 -5.4--- 5.3 1.3---- 0.0-- 13---------
1969-01-17 -2.6 -1.3 -6.5--- 8.0 0.7---- 0.0-- 10---------
1969-01-18 -1.7 3.4 -3.8--- 8.0 0.0---- 0.0-- 10---------
1969-01-19 -1.8 0.4 -3.5--- 8.0 2.3---- 0.0-- 8---------
1969-01-20 -9.4 -3.2-12.6--- 2.7 2.7---- 0.0-- 8---------
1969-01-21-16.3-10.4-18.7--- 0.0 1.3---- 0.0-- 8---------
1969-01-22 -5.4 2.2-21.9--- 4.7 0.7---- 0.0-- 8---------
1969-01-23 -3.1 -0.3 -4.5--- 8.0 7.3---- 3.8-- 7---------
1969-01-24 -2.9 -1.7 -3.6--- 8.0 2.7---- 3.6-- 10---------
1969-01-25 -6.1 -3.3 -7.6--- 8.0 1.3---- 0.6-- 15---------
1969-01-26-16.6 -6.1-22.7--- 3.7 0.3---- 0.0-- 16---------
1969-01-27-19.5 -6.1-27.5--- 0.0 0.0---- 0.0-- 15---------
1969-01-28 -4.4 -2.3-22.0--- 2.7 2.0---- 0.0-- 15---------
1969-01-29 -0.7 0.0 -3.6--- 8.0 1.3---- 0.0-- 14---------
1969-01-30 0.5 3.2 -1.8--- 8.0 1.3---- 4.3-- 14---------
1969-01-31 1.8 3.4 -0.8--- 8.0 2.0---- 3.3-- 18---------
1969-02-01 0.7 4.0 -3.9--- 4.7 2.3---- 0.0-- 11---------
1969-02-02 4.1 5.6 -1.4--- 5.3 5.0---- 1.4-- 11---------
1969-02-03 0.0 4.6 -3.6--- 8.0 1.7---- 8.4-- 10---------
1969-02-04 -2.6 -0.3 -6.1--- 8.0 0.0---- 0.0-- 13---------
1969-02-05 -5.7 -1.6 -6.0--- 8.0 2.7---- 0.6-- 10---------
1969-02-06 -5.2 -4.5 -6.5--- 8.0 4.0---- 1.0-- 11---------
1969-02-07 -5.5 0.0 -8.4--- 5.3 0.0---- 0.0-- 12---------
1969-02-08 -6.6 0.0-11.5--- 0.7 0.7---- 0.0-- 11---------
1969-02-09 -9.9 -7.3-13.2--- 8.0 1.3---- 6.3-- 10---------
1969-02-10 -6.2 -2.3-10.3--- 7.0 0.7---- 0.0-- 19---------
1969-02-11-17.9 -7.3-24.1--- 5.3 0.7---- 0.0-- 19---------
1969-02-12-21.8 -6.1-30.6--- 0.0 0.0---- 0.0-- 19---------
249.2 ms

 

Źródłem pochodzenia danych jest Instytut Meteorologii i Gospodarki Wodnej – Państwowy Instytut Badawczy. Dane Instytutu Meteorologii i Gospodarki Wodnej – Państwowego Instytutu Badawczego zostały przetworzone.

Dane źródłowe można odnaleźć na stronie https://dane.imgw.pl